createdAt,value
2022-12-27T00:00:10.888Z,52.45
2022-12-27T00:03:16.052Z,51.47
2022-12-27T00:06:22.692Z,54.50
2022-12-27T00:09:25.090Z,56.08
2022-12-27T00:12:27.322Z,55.63
2022-12-27T00:15:29.536Z,44.70
2022-12-27T00:18:32.123Z,56.20
2022-12-27T00:21:35.064Z,56.25
2022-12-27T00:24:37.419Z,53.92
2022-12-27T00:27:39.755Z,51.83
2022-12-27T00:30:44.476Z,49.03
2022-12-27T00:33:48.305Z,53.33
2022-12-27T00:36:50.454Z,59.60
2022-12-27T00:39:52.617Z,55.55
2022-12-27T00:42:54.711Z,56.92
2022-12-27T00:45:57.312Z,54.80
2022-12-27T00:48:59.566Z,49.95
2022-12-27T00:52:01.921Z,57.20
2022-12-27T00:55:05.411Z,56.38
2022-12-27T00:58:07.635Z,55.53
2022-12-27T01:01:15.879Z,57.25
2022-12-27T01:04:18.156Z,52.10
2022-12-27T01:07:20.401Z,48.47
2022-12-27T01:10:22.763Z,56.95
2022-12-27T01:13:25.498Z,59.70
2022-12-27T01:16:29.834Z,51.58
2022-12-27T01:19:32.294Z,57.67
2022-12-27T01:22:34.403Z,60.83
2022-12-27T01:25:36.712Z,51.70
2022-12-27T01:28:38.951Z,59.22
2022-12-27T01:31:41.314Z,59.60
2022-12-27T01:34:43.599Z,53.58
2022-12-27T01:37:45.844Z,48.25
2022-12-27T01:40:48.097Z,57.35
2022-12-27T01:43:50.464Z,58.13
2022-12-27T01:46:52.693Z,51.63
2022-12-27T01:50:31.594Z,59.30
2022-12-27T01:53:41.683Z,56.67
2022-12-27T01:56:43.850Z,58.05
2022-12-27T01:59:46.818Z,57.78
2022-12-27T02:02:50.266Z,58.95
2022-12-27T02:05:53.162Z,61.58
2022-12-27T02:09:14.101Z,61.33
2022-12-27T02:12:18.343Z,56.63
2022-12-27T02:15:20.509Z,57.92
2022-12-27T02:18:22.828Z,57.67
2022-12-27T02:21:43.480Z,53.17
2022-12-27T02:24:57.547Z,60.33
2022-12-27T02:28:31.737Z,61.88
2022-12-27T02:31:36.847Z,56.17
2022-12-27T02:34:54.089Z,56.92
2022-12-27T02:38:06.963Z,63.22
2022-12-27T02:41:30.463Z,59.33
2022-12-27T02:44:51.107Z,58.63
2022-12-27T02:48:11.979Z,55.55
2022-12-27T02:52:17.258Z,69.32
2022-12-27T02:56:03.474Z,61.90
2022-12-27T02:59:59.270Z,62.58
2022-12-27T03:03:21.181Z,57.90
2022-12-27T03:06:46.587Z,55.53
2022-12-27T03:10:35.321Z,63.05
2022-12-27T03:14:05.674Z,53.50
2022-12-27T03:20:34.502Z,56.92
2022-12-27T03:23:57.828Z,64.00
2022-12-27T03:27:02.273Z,61.60
2022-12-27T03:30:27.391Z,61.75
2022-12-27T03:33:32.208Z,67.65
2022-12-27T03:36:53.575Z,55.45
2022-12-27T03:40:22.646Z,70.68
2022-12-27T03:43:24.840Z,63.63
2022-12-27T03:46:34.001Z,69.15
2022-12-27T03:49:41.592Z,55.93
2022-12-27T03:52:50.235Z,67.55
2022-12-27T03:55:53.068Z,60.35
2022-12-27T03:58:57.363Z,70.93
2022-12-27T04:02:00.270Z,73.18
2022-12-27T04:05:02.522Z,69.05
2022-12-27T04:08:23.404Z,67.68
2022-12-27T04:11:44.260Z,61.88
2022-12-27T04:15:04.915Z,70.50
2022-12-27T04:18:25.599Z,69.13
2022-12-27T04:21:46.238Z,65.80
2022-12-27T04:25:07.268Z,73.00
2022-12-27T04:28:27.839Z,65.95
2022-12-27T04:31:48.883Z,73.20
2022-12-27T04:34:50.977Z,70.20
2022-12-27T04:37:53.156Z,69.75
2022-12-27T04:41:13.957Z,67.78
2022-12-27T04:44:34.749Z,76.97
2022-12-27T04:47:55.356Z,68.35
2022-12-27T04:51:15.991Z,65.20
2022-12-27T04:54:40.080Z,67.53
2022-12-27T04:57:42.300Z,74.95
2022-12-27T05:01:02.961Z,62.35
2022-12-27T05:04:05.388Z,60.97
2022-12-27T05:07:29.720Z,54.30
2022-12-27T05:10:50.327Z,64.22
2022-12-27T05:14:01.685Z,74.13
2022-12-27T05:17:03.984Z,55.05
2022-12-27T05:20:06.734Z,75.00
2022-12-27T05:23:28.331Z,58.15
2022-12-27T05:26:32.042Z,71.72
2022-12-27T05:29:36.215Z,72.93
2022-12-27T05:32:38.507Z,68.95
2022-12-27T05:35:40.946Z,70.30
2022-12-27T05:38:43.161Z,68.80
2022-12-27T05:41:45.430Z,68.25
2022-12-27T05:44:47.533Z,78.35
2022-12-27T05:47:49.695Z,70.25
2022-12-27T05:50:52.129Z,59.85
2022-12-27T05:53:54.284Z,69.60
2022-12-27T05:56:56.433Z,69.65
2022-12-27T05:59:58.599Z,78.07
2022-12-27T06:03:03.255Z,67.05
2022-12-27T06:06:07.895Z,65.95
2022-12-27T06:09:10.504Z,77.50
2022-12-27T06:12:13.669Z,67.30
2022-12-27T06:15:16.077Z,72.90
2022-12-27T06:18:18.211Z,78.28
2022-12-27T06:21:21.766Z,79.80
2022-12-27T06:24:23.930Z,68.38
2022-12-27T06:27:26.175Z,68.40
2022-12-27T06:30:32.856Z,72.32
2022-12-27T06:33:38.381Z,68.00
2022-12-27T06:36:40.645Z,75.15
2022-12-27T06:39:42.886Z,70.95
2022-12-27T06:42:45.130Z,69.32
2022-12-27T06:45:56.349Z,79.38
2022-12-27T06:48:58.558Z,80.45
2022-12-27T06:52:02.408Z,74.30
2022-12-27T06:55:04.864Z,68.22
2022-12-27T06:58:07.085Z,73.97
2022-12-27T07:01:14.656Z,69.03
2022-12-27T07:04:16.918Z,69.03
2022-12-27T07:07:19.020Z,70.47
2022-12-27T07:10:21.314Z,63.28
2022-12-27T07:13:23.417Z,62.40
2022-12-27T07:16:29.093Z,68.50
2022-12-27T07:19:31.348Z,67.65
2022-12-27T07:22:34.376Z,69.50
2022-12-27T07:25:36.517Z,66.25
2022-12-27T07:28:39.595Z,59.45
2022-12-27T07:31:41.949Z,63.63
2022-12-27T07:34:44.515Z,61.72
2022-12-27T07:37:46.655Z,60.53
2022-12-27T07:40:48.706Z,64.70
2022-12-27T07:43:51.151Z,55.92
2022-12-27T07:46:53.357Z,51.42
2022-12-27T07:49:55.565Z,54.95
2022-12-27T07:52:57.783Z,55.60
2022-12-27T07:56:04.863Z,54.28
2022-12-27T07:59:12.782Z,61.53
2022-12-27T08:02:16.544Z,55.80
2022-12-27T08:05:24.399Z,52.53
2022-12-27T08:08:39.779Z,57.00
2022-12-27T08:11:42.207Z,56.95
2022-12-27T08:14:44.439Z,56.08
2022-12-27T08:17:46.831Z,60.13
2022-12-27T08:20:49.133Z,60.28
2022-12-27T08:23:51.344Z,51.33
2022-12-27T08:26:53.501Z,59.08
2022-12-27T08:29:55.716Z,61.17
2022-12-27T08:32:58.245Z,55.85
2022-12-27T08:36:53.617Z,51.63
2022-12-27T08:39:30.365Z,51.77
2022-12-27T08:42:32.519Z,53.95
2022-12-27T08:45:35.821Z,48.47
2022-12-27T08:48:38.093Z,55.63
2022-12-27T08:51:41.620Z,52.75
2022-12-27T08:54:44.174Z,49.90
2022-12-27T08:57:47.678Z,46.60
2022-12-27T09:00:50.470Z,49.13
2022-12-27T09:03:53.004Z,52.78
2022-12-27T09:06:55.231Z,42.05
2022-12-27T09:09:57.367Z,42.60
2022-12-27T09:12:59.558Z,49.22
2022-12-27T09:16:09.407Z,52.92
2022-12-27T09:19:11.866Z,37.80
2022-12-27T09:22:13.972Z,44.13
2022-12-27T09:25:16.208Z,46.58
2022-12-27T09:28:18.418Z,44.30
2022-12-27T09:31:21.718Z,46.70
2022-12-27T09:34:23.894Z,40.40
2022-12-27T09:37:26.173Z,42.35
2022-12-27T09:40:28.357Z,42.22
2022-12-27T09:43:44.329Z,42.85
2022-12-27T09:47:08.739Z,43.78
2022-12-27T09:50:17.650Z,46.85
2022-12-27T09:53:37.506Z,46.53
2022-12-27T09:57:17.592Z,43.33
2022-12-27T10:00:06.801Z,44.40
2022-12-27T10:03:09.897Z,44.10
2022-12-27T10:06:19.254Z,46.97
2022-12-27T10:09:33.142Z,45.10
2022-12-27T10:13:06.258Z,44.95
2022-12-27T10:16:31.645Z,45.80
2022-12-27T10:19:53.573Z,46.80
2022-12-27T10:23:06.388Z,42.00
2022-12-27T10:26:16.506Z,46.28
2022-12-27T10:29:24.354Z,47.15
2022-12-27T10:32:26.982Z,49.60
2022-12-27T10:35:30.493Z,49.55
2022-12-27T10:38:34.671Z,39.85
2022-12-27T10:41:50.682Z,37.85
2022-12-27T10:45:07.510Z,43.10
2022-12-27T10:48:22.872Z,47.55
2022-12-27T10:51:27.257Z,47.67
2022-12-27T10:54:30.384Z,44.78
2022-12-27T10:57:34.114Z,39.83
2022-12-27T11:00:36.660Z,44.90
2022-12-27T11:03:39.002Z,40.22
2022-12-27T11:06:43.150Z,45.42
2022-12-27T11:09:51.151Z,48.70
2022-12-27T11:12:59.233Z,53.30
2022-12-27T11:16:01.440Z,57.30
2022-12-27T11:19:04.650Z,61.20
2022-12-27T11:22:08.892Z,68.07
2022-12-27T11:25:14.554Z,58.78
2022-12-27T11:28:40.241Z,64.88
2022-12-27T11:31:48.148Z,52.13
2022-12-27T11:34:54.252Z,64.18
2022-12-27T11:37:57.117Z,66.63
2022-12-27T11:41:11.187Z,63.50
2022-12-27T11:44:34.051Z,67.13
2022-12-27T11:47:43.376Z,59.63
2022-12-27T11:51:05.973Z,65.80
2022-12-27T11:54:23.407Z,64.57
2022-12-27T11:57:37.817Z,63.22
2022-12-27T12:01:06.300Z,60.60
2022-12-27T12:04:27.217Z,59.63
2022-12-27T12:08:10.060Z,54.78
2022-12-27T12:11:30.762Z,60.40
2022-12-27T12:15:02.449Z,64.90
2022-12-27T12:18:46.332Z,68.18
2022-12-27T12:21:59.343Z,64.68
2022-12-27T12:25:01.513Z,66.65
2022-12-27T12:28:59.270Z,57.65
2022-12-27T12:32:29.259Z,55.60
2022-12-27T12:35:52.231Z,62.15
2022-12-27T12:39:09.732Z,58.45
2022-12-27T12:42:49.273Z,47.95
2022-12-27T12:46:33.061Z,58.90
2022-12-27T12:49:59.946Z,59.17
2022-12-27T12:53:27.038Z,51.17
2022-12-27T12:56:56.977Z,54.45
2022-12-27T13:00:10.229Z,58.15
2022-12-27T13:03:46.050Z,55.30
2022-12-27T13:07:14.050Z,57.08
2022-12-27T13:10:54.181Z,55.00
2022-12-27T13:14:23.177Z,48.90
2022-12-27T13:17:39.396Z,49.75
2022-12-27T13:20:50.763Z,51.80
2022-12-27T13:24:07.605Z,54.42
2022-12-27T13:27:16.378Z,43.33
2022-12-27T13:30:22.451Z,50.88
2022-12-27T13:33:30.639Z,50.05
2022-12-27T13:36:51.696Z,52.95
2022-12-27T13:40:08.975Z,44.50
2022-12-27T13:43:29.425Z,47.47
2022-12-27T13:46:54.368Z,53.22
2022-12-27T13:50:30.713Z,49.97
2022-12-27T13:54:05.517Z,55.53
2022-12-27T13:57:10.790Z,52.88
2022-12-27T14:00:23.533Z,45.05
2022-12-27T14:03:44.772Z,47.20
2022-12-27T14:06:53.578Z,49.08
2022-12-27T14:10:04.321Z,43.08
2022-12-27T14:13:11.004Z,52.97
2022-12-27T14:16:35.398Z,50.92
2022-12-27T14:19:49.447Z,45.58
2022-12-27T14:23:00.417Z,47.75
2022-12-27T14:26:31.553Z,45.88
2022-12-27T14:29:54.570Z,44.58
2022-12-27T14:33:21.643Z,48.65
2022-12-27T14:37:00.844Z,45.78
2022-12-27T14:40:25.322Z,46.35
2022-12-27T14:44:23.225Z,46.90
2022-12-27T14:47:46.966Z,46.05
2022-12-27T14:51:58.930Z,48.38
2022-12-27T14:55:06.883Z,50.28
2022-12-27T14:58:36.038Z,48.17
2022-12-27T15:01:58.377Z,42.63
2022-12-27T15:05:25.432Z,47.03
2022-12-27T15:08:42.579Z,44.75
2022-12-27T15:12:04.191Z,48.20
2022-12-27T15:15:28.843Z,48.30
2022-12-27T15:19:01.982Z,45.10
2022-12-27T15:22:21.964Z,40.20
2022-12-27T15:25:32.891Z,40.25
2022-12-27T15:28:47.646Z,45.75
2022-12-27T15:32:26.167Z,46.38
2022-12-27T15:35:44.761Z,51.60
2022-12-27T15:38:54.126Z,47.45
2022-12-27T15:42:11.688Z,49.63
2022-12-27T15:45:19.908Z,42.08
2022-12-27T15:48:40.169Z,46.90
2022-12-27T15:51:42.254Z,50.17
2022-12-27T15:55:21.855Z,50.47
2022-12-27T15:58:25.617Z,44.22
2022-12-27T16:01:29.889Z,47.03
2022-12-27T16:05:15.575Z,53.15
2022-12-27T16:08:28.755Z,44.75
2022-12-27T16:12:02.254Z,44.80
2022-12-27T16:15:41.153Z,45.08
2022-12-27T16:18:56.088Z,52.50
2022-12-27T16:21:58.345Z,53.55
2022-12-27T16:25:16.279Z,53.50
2022-12-27T16:28:29.829Z,51.42
2022-12-27T16:31:41.897Z,52.53
2022-12-27T16:34:51.728Z,44.28
2022-12-27T16:37:55.655Z,48.13
2022-12-27T16:41:13.953Z,44.75
2022-12-27T16:44:25.171Z,49.08
2022-12-27T16:47:30.091Z,45.83
2022-12-27T16:50:40.694Z,48.42
2022-12-27T16:54:04.808Z,47.30
2022-12-27T16:57:25.109Z,45.65
2022-12-27T17:03:47.015Z,48.50
2022-12-27T17:06:55.019Z,50.58
2022-12-27T17:10:30.373Z,55.15
2022-12-27T17:13:54.699Z,46.50
2022-12-27T17:17:03.364Z,53.63
2022-12-27T17:20:11.976Z,47.85
2022-12-27T17:23:14.220Z,53.58
2022-12-27T17:26:50.084Z,53.28
2022-12-27T17:30:12.837Z,43.72
2022-12-27T17:33:28.369Z,53.67
2022-12-27T17:36:56.689Z,56.47
2022-12-27T17:40:08.158Z,57.20
2022-12-27T17:44:13.508Z,49.90
2022-12-27T17:47:44.977Z,51.05
2022-12-27T17:50:47.579Z,52.83
2022-12-27T17:54:10.254Z,46.47
2022-12-27T17:57:34.085Z,44.17
2022-12-27T18:00:59.085Z,48.58
2022-12-27T18:04:02.892Z,48.88
2022-12-27T18:07:09.215Z,55.88
2022-12-27T18:10:37.935Z,45.22
2022-12-27T18:13:50.556Z,54.65
2022-12-27T18:16:52.816Z,47.42
2022-12-27T18:19:55.397Z,51.92
2022-12-27T18:23:07.910Z,43.92
2022-12-27T18:26:13.948Z,56.53
2022-12-27T18:29:16.247Z,54.38
2022-12-27T18:32:28.714Z,48.00
2022-12-27T18:35:31.536Z,52.60
2022-12-27T18:38:47.817Z,52.40
2022-12-27T18:41:53.341Z,57.97
2022-12-27T18:45:00.346Z,51.72
2022-12-27T18:48:09.198Z,50.55
2022-12-27T18:51:11.592Z,54.67
2022-12-27T18:54:31.104Z,58.85
2022-12-27T18:57:37.784Z,56.07
2022-12-27T19:01:04.861Z,57.28
2022-12-27T19:04:17.210Z,56.40
2022-12-27T19:07:19.427Z,55.75
2022-12-27T19:10:28.040Z,47.25
2022-12-27T19:13:48.006Z,55.85
2022-12-27T19:16:54.706Z,48.72
2022-12-27T19:20:06.562Z,49.53
2022-12-27T19:23:49.288Z,46.25
2022-12-27T19:26:51.802Z,54.33
2022-12-27T19:29:54.161Z,56.15
2022-12-27T19:32:56.316Z,58.17
2022-12-27T19:35:58.792Z,53.85
2022-12-27T19:39:01.609Z,57.20
2022-12-27T19:42:06.775Z,61.85
2022-12-27T19:45:15.582Z,58.63
2022-12-27T19:48:17.835Z,54.25
2022-12-27T19:51:20.358Z,57.83
2022-12-27T19:54:24.875Z,58.22
2022-12-27T19:57:27.349Z,51.90
2022-12-27T20:00:29.510Z,52.42
2022-12-27T20:03:31.867Z,51.53
2022-12-27T20:06:35.562Z,53.13
2022-12-27T20:09:37.639Z,59.60
2022-12-27T20:12:39.921Z,54.85
2022-12-27T20:15:42.060Z,56.38
2022-12-27T20:18:44.775Z,56.60
2022-12-27T20:21:47.475Z,50.15
2022-12-27T20:24:49.838Z,49.45
2022-12-27T20:27:51.979Z,54.90
2022-12-27T20:30:54.146Z,53.00
2022-12-27T20:33:56.622Z,47.67
2022-12-27T20:37:00.090Z,52.78
2022-12-27T20:40:02.297Z,53.13
2022-12-27T20:43:04.605Z,47.75
2022-12-27T20:46:08.501Z,47.33
2022-12-27T20:49:10.707Z,54.47
2022-12-27T20:52:12.983Z,52.22
2022-12-27T20:55:15.096Z,48.40
2022-12-27T20:58:17.214Z,49.47
2022-12-27T21:01:22.287Z,45.75
2022-12-27T21:04:26.728Z,52.85
2022-12-27T21:07:28.965Z,51.00
2022-12-27T21:10:31.130Z,54.25
2022-12-27T21:13:36.422Z,52.42
2022-12-27T21:16:41.609Z,54.17
2022-12-27T21:19:43.874Z,50.63
2022-12-27T21:22:45.994Z,55.17
2022-12-27T21:25:48.146Z,53.22
2022-12-27T21:28:50.431Z,58.38
2022-12-27T21:31:53.493Z,58.03
2022-12-27T21:34:55.710Z,52.42
2022-12-27T21:37:57.859Z,56.63
2022-12-27T21:41:05.889Z,50.50
2022-12-27T21:44:08.463Z,51.85
2022-12-27T21:47:10.753Z,56.90
2022-12-27T21:50:13.035Z,56.95
2022-12-27T21:53:17.433Z,48.92
2022-12-27T21:56:19.934Z,48.33
2022-12-27T21:59:22.092Z,58.60
2022-12-27T22:02:24.392Z,62.75
2022-12-27T22:05:28.372Z,55.20
2022-12-27T22:08:31.332Z,56.67
2022-12-27T22:11:34.524Z,48.63
2022-12-27T22:14:37.196Z,60.88
2022-12-27T22:17:39.555Z,58.33
2022-12-27T22:20:46.744Z,59.63
2022-12-27T22:23:52.406Z,65.72
2022-12-27T22:26:54.770Z,54.58
2022-12-27T22:29:56.937Z,62.95
2022-12-27T22:32:59.148Z,54.35
2022-12-27T22:36:06.347Z,58.13
2022-12-27T22:39:08.781Z,59.80
2022-12-27T22:42:10.946Z,56.90
2022-12-27T22:45:13.140Z,52.35
2022-12-27T22:48:15.171Z,56.30
2022-12-27T22:51:22.364Z,52.47
2022-12-27T22:55:04.478Z,55.00
2022-12-27T22:57:46.807Z,59.55
2022-12-27T23:00:48.888Z,56.63
2022-12-27T23:03:51.388Z,56.63
2022-12-27T23:06:53.589Z,58.13
2022-12-27T23:09:55.659Z,54.97
2022-12-27T23:12:57.783Z,58.45
2022-12-27T23:16:01.437Z,60.42
2022-12-27T23:19:04.438Z,56.25
2022-12-27T23:22:06.770Z,56.28
2022-12-27T23:25:09.027Z,56.35
2022-12-27T23:28:11.381Z,55.33
2022-12-27T23:31:14.546Z,51.60
2022-12-27T23:34:16.800Z,54.25
2022-12-27T23:37:18.994Z,54.42
2022-12-27T23:40:21.311Z,56.97
2022-12-27T23:43:50.968Z,50.58
2022-12-27T23:46:45.903Z,49.33
2022-12-27T23:49:48.141Z,55.45
2022-12-27T23:52:50.438Z,56.05
2022-12-27T23:56:16.061Z,56.55
2022-12-27T23:59:18.311Z,48.70
